createdAt,value
2023-04-29T00:17:23.759Z,0.60
2023-04-29T00:20:00.425Z,0.73
2023-04-29T00:23:01.941Z,0.50
2023-04-29T00:25:30.514Z,0.60
2023-04-29T00:28:02.896Z,0.70
2023-04-29T00:30:34.420Z,0.80
2023-04-29T00:33:03.783Z,0.50
2023-04-29T00:35:42.202Z,0.60
2023-04-29T00:38:10.840Z,0.70
2023-04-29T00:41:30.421Z,0.60
2023-04-29T00:44:02.407Z,0.70
2023-04-29T00:50:05.421Z,0.70
2023-04-29T00:59:10.595Z,0.55
2023-04-29T01:02:11.759Z,0.68
2023-04-29T01:09:12.441Z,0.80
2023-04-29T01:12:32.170Z,0.70
2023-04-29T01:15:16.158Z,0.70
2023-04-29T01:18:12.519Z,0.63
2023-04-29T01:39:11.909Z,0.70
2023-04-29T01:42:02.035Z,0.70
2023-04-29T01:44:37.087Z,0.60
2023-04-29T01:47:07.414Z,1.00
2023-04-29T01:50:07.425Z,0.90
2023-04-29T01:52:35.702Z,0.90
2023-04-29T01:55:04.804Z,0.85
2023-04-29T01:57:33.344Z,0.70
2023-04-29T02:00:02.967Z,0.73
2023-04-29T02:02:31.426Z,1.27
2023-04-29T02:04:59.850Z,0.90
2023-04-29T02:07:28.458Z,1.45
2023-04-29T02:09:56.785Z,0.70
2023-04-29T02:12:25.291Z,0.60
2023-04-29T02:14:56.700Z,0.80
2023-04-29T02:17:25.236Z,0.63
2023-04-29T02:19:55.977Z,0.90
2023-04-29T02:22:24.167Z,0.85
2023-04-29T02:24:52.892Z,0.68
2023-04-29T02:27:21.240Z,0.82
2023-04-29T02:29:50.044Z,1.00
2023-04-29T02:32:20.962Z,0.60
2023-04-29T02:34:50.197Z,0.70
2023-04-29T02:37:18.492Z,0.63
2023-04-29T02:39:46.893Z,0.68
2023-04-29T02:42:15.458Z,0.63
2023-04-29T02:44:43.828Z,0.70
2023-04-29T02:47:12.020Z,0.70
2023-04-29T02:49:40.362Z,1.10
2023-04-29T02:52:08.608Z,0.80
2023-04-29T02:54:37.730Z,0.70
2023-04-29T02:57:06.020Z,0.88
2023-04-29T02:59:34.518Z,0.90
2023-04-29T03:02:02.991Z,0.70
2023-04-29T03:04:31.523Z,0.90
2023-04-29T03:06:59.907Z,0.68
2023-04-29T03:09:28.728Z,0.70
2023-04-29T03:11:57.026Z,0.80
2023-04-29T03:14:25.388Z,0.90
2023-04-29T03:16:53.866Z,1.00
2023-04-29T03:19:22.832Z,0.73
2023-04-29T03:21:53.385Z,0.85
2023-04-29T03:24:22.370Z,0.90
2023-04-29T03:26:50.634Z,0.70
2023-04-29T03:29:18.928Z,1.15
2023-04-29T03:31:47.861Z,0.93
2023-04-29T03:34:16.254Z,1.00
2023-04-29T03:36:44.535Z,0.82
2023-04-29T03:39:16.063Z,0.82
2023-04-29T03:41:44.583Z,0.77
2023-04-29T03:44:13.373Z,0.80
2023-04-29T03:46:41.709Z,0.73
2023-04-29T03:49:10.310Z,1.00
2023-04-29T03:51:38.848Z,0.80
2023-04-29T03:54:07.424Z,0.75
2023-04-29T03:56:35.671Z,1.00
2023-04-29T03:59:04.502Z,0.68
2023-04-29T04:01:33.064Z,0.80
2023-04-29T04:04:01.861Z,0.88
2023-04-29T04:06:30.337Z,0.80
2023-04-29T04:09:00.344Z,0.90
2023-04-29T04:11:28.760Z,0.50
2023-04-29T04:13:57.022Z,0.80
2023-04-29T04:16:25.288Z,0.77
2023-04-29T04:18:54.106Z,0.80
2023-04-29T04:21:22.386Z,0.70
2023-04-29T04:23:50.642Z,0.80
2023-04-29T04:26:19.486Z,0.80
2023-04-29T04:28:48.092Z,0.75
2023-04-29T04:31:16.389Z,1.08
2023-04-29T04:33:44.661Z,0.90
2023-04-29T04:36:12.894Z,1.10
2023-04-29T04:38:41.254Z,0.80
2023-04-29T04:41:09.884Z,1.10
2023-04-29T04:43:38.152Z,0.93
2023-04-29T04:46:16.902Z,0.90
2023-04-29T04:48:46.077Z,0.82
2023-04-29T04:51:15.941Z,0.70
2023-04-29T04:53:44.312Z,1.25
2023-04-29T04:56:13.156Z,1.15
2023-04-29T04:58:41.610Z,1.20
2023-04-29T05:01:10.504Z,0.80
2023-04-29T05:03:39.148Z,0.88
2023-04-29T05:06:07.898Z,0.80
2023-04-29T05:08:36.240Z,0.70
2023-04-29T05:11:04.723Z,0.80
2023-04-29T05:13:35.316Z,0.80
2023-04-29T05:16:07.201Z,0.70
2023-04-29T05:18:35.687Z,0.65
2023-04-29T05:21:03.941Z,0.88
2023-04-29T05:23:32.187Z,0.85
2023-04-29T05:26:00.441Z,0.80
2023-04-29T05:28:28.708Z,0.90
2023-04-29T05:30:57.078Z,0.70
2023-04-29T05:33:25.863Z,0.68
2023-04-29T05:35:54.128Z,0.68
2023-04-29T05:38:22.444Z,0.80
2023-04-29T05:40:52.122Z,0.85
2023-04-29T05:43:20.372Z,0.57
2023-04-29T05:45:49.369Z,0.60
2023-04-29T05:48:17.973Z,0.80
2023-04-29T05:50:46.643Z,0.70
2023-04-29T05:53:15.145Z,0.70
2023-04-29T05:55:45.838Z,0.60
2023-04-29T05:58:15.924Z,0.50
2023-04-29T06:00:44.822Z,0.88
2023-04-29T06:03:13.461Z,0.80
2023-04-29T06:05:42.888Z,0.60
2023-04-29T06:08:11.692Z,0.65
2023-04-29T06:10:39.905Z,0.50
2023-04-29T06:13:08.191Z,0.60
2023-04-29T06:15:36.668Z,0.52
2023-04-29T06:18:05.165Z,0.57
2023-04-29T06:20:34.902Z,0.60
2023-04-29T06:23:04.514Z,0.70
2023-04-29T06:25:33.308Z,0.60
2023-04-29T06:28:01.919Z,0.55
2023-04-29T06:30:30.240Z,0.65
2023-04-29T06:32:58.805Z,0.70
2023-04-29T06:35:27.213Z,0.60
2023-04-29T06:37:57.379Z,0.52
2023-04-29T06:40:25.793Z,0.73
2023-04-29T06:42:54.218Z,0.60
2023-04-29T06:45:22.632Z,0.63
2023-04-29T06:47:51.192Z,0.52
2023-04-29T06:50:19.723Z,0.47
2023-04-29T06:52:48.055Z,0.50
2023-04-29T06:55:16.663Z,0.47
2023-04-29T06:57:45.015Z,0.60
2023-04-29T07:00:13.824Z,0.50
2023-04-29T07:02:42.224Z,0.50
2023-04-29T07:05:10.992Z,0.60
2023-04-29T07:07:39.337Z,0.55
2023-04-29T07:10:08.569Z,1.05
2023-04-29T07:12:38.120Z,0.60
2023-04-29T07:15:06.785Z,0.70
2023-04-29T07:17:35.195Z,0.50
2023-04-29T07:20:05.041Z,0.60
2023-04-29T07:22:33.324Z,0.60
2023-04-29T07:25:02.281Z,0.50
2023-04-29T07:27:30.614Z,0.50
2023-04-29T07:30:02.187Z,0.52
2023-04-29T07:32:32.610Z,0.52
2023-04-29T07:35:01.281Z,0.50
2023-04-29T07:37:29.641Z,0.70
2023-04-29T07:39:57.850Z,0.60
2023-04-29T07:42:26.869Z,0.50
2023-04-29T07:44:55.301Z,0.68
2023-04-29T07:47:23.770Z,0.55
2023-04-29T07:49:52.400Z,0.60
2023-04-29T07:52:20.724Z,0.60
2023-04-29T07:54:49.022Z,0.60
2023-04-29T07:57:17.464Z,0.50
2023-04-29T07:59:45.801Z,0.50
2023-04-29T08:02:14.928Z,0.50
2023-04-29T08:04:43.964Z,0.55
2023-04-29T08:07:13.695Z,0.50
2023-04-29T08:09:41.992Z,0.77
2023-04-29T08:12:10.665Z,0.68
2023-04-29T08:14:38.921Z,0.60
2023-04-29T08:17:08.301Z,0.70
2023-04-29T08:19:36.774Z,0.50
2023-04-29T08:22:05.136Z,0.50
2023-04-29T08:24:34.967Z,0.50
2023-04-29T08:27:04.427Z,0.60
2023-04-29T08:29:36.134Z,0.70
2023-04-29T08:32:04.637Z,0.40
2023-04-29T08:34:37.026Z,0.70
2023-04-29T08:37:05.271Z,0.80
2023-04-29T08:39:33.482Z,0.57
2023-04-29T08:42:08.756Z,0.50
2023-04-29T08:44:37.857Z,0.50
2023-04-29T08:47:07.186Z,0.50
2023-04-29T08:49:35.567Z,0.50
2023-04-29T08:52:05.342Z,0.90
2023-04-29T08:54:34.022Z,0.65
2023-04-29T08:57:03.660Z,0.80
2023-04-29T08:59:32.405Z,0.50
2023-04-29T09:02:01.823Z,0.60
2023-04-29T09:05:11.939Z,0.60
2023-04-29T09:07:40.918Z,0.60
2023-04-29T09:10:10.550Z,0.70
2023-04-29T09:12:39.194Z,0.80
2023-04-29T09:15:08.131Z,0.75
2023-04-29T09:17:47.225Z,0.80
2023-04-29T09:20:21.137Z,0.88
2023-04-29T09:22:51.494Z,0.63
2023-04-29T09:25:20.198Z,0.60
2023-04-29T09:27:48.609Z,0.70
2023-04-29T09:30:17.733Z,0.90
2023-04-29T09:32:46.583Z,0.80
2023-04-29T09:35:28.261Z,0.80
2023-04-29T09:38:10.928Z,0.70
2023-04-29T09:40:50.701Z,0.77
2023-04-29T09:43:27.094Z,0.85
2023-04-29T09:45:56.259Z,0.82
2023-04-29T09:48:34.579Z,0.80
2023-04-29T09:51:04.371Z,0.90
2023-04-29T09:53:33.390Z,1.00
2023-04-29T09:56:03.971Z,1.30
2023-04-29T09:58:41.039Z,1.70
2023-04-29T10:01:09.665Z,1.70
2023-04-29T10:03:39.836Z,1.48
2023-04-29T10:06:09.948Z,0.90
2023-04-29T10:08:38.650Z,1.25
2023-04-29T10:11:07.187Z,1.83
2023-04-29T10:13:39.196Z,1.60
2023-04-29T10:16:32.742Z,2.10
2023-04-29T10:19:05.079Z,1.33
2023-04-29T10:21:33.503Z,1.50
2023-04-29T10:24:03.654Z,2.00
2023-04-29T10:26:32.880Z,2.10
2023-04-29T10:29:01.896Z,1.67
2023-04-29T10:31:33.238Z,1.50
2023-04-29T10:36:33.015Z,1.50
2023-04-29T10:39:04.824Z,1.80
2023-04-29T10:41:47.925Z,2.00
2023-04-29T10:44:16.752Z,2.20
2023-04-29T10:46:45.124Z,2.75
2023-04-29T10:49:14.024Z,2.67
2023-04-29T10:51:44.031Z,2.25
2023-04-29T10:54:18.239Z,2.05
2023-04-29T10:56:51.467Z,2.55
2023-04-29T10:59:43.877Z,2.42
2023-04-29T11:02:12.799Z,2.45
2023-04-29T11:05:13.285Z,2.38
2023-04-29T11:07:42.622Z,2.30
2023-04-29T11:10:11.247Z,1.90
2023-04-29T11:12:39.468Z,2.13
2023-04-29T11:15:11.995Z,1.70
2023-04-29T11:17:40.454Z,1.30
2023-04-29T11:20:15.033Z,1.70
2023-04-29T11:22:52.178Z,1.70
2023-04-29T11:25:20.498Z,1.58
2023-04-29T11:27:50.797Z,2.28
2023-04-29T11:30:20.990Z,2.15
2023-04-29T11:32:51.851Z,2.40
2023-04-29T11:35:22.984Z,2.10
2023-04-29T11:37:51.268Z,2.65
2023-04-29T11:40:19.550Z,2.30
2023-04-29T11:42:50.441Z,2.67
2023-04-29T11:45:19.861Z,2.08
2023-04-29T11:47:49.588Z,1.30
2023-04-29T11:50:20.934Z,1.80
2023-04-29T11:55:17.684Z,1.15
2023-04-29T11:57:46.447Z,0.95
2023-04-29T12:00:15.468Z,1.02
2023-04-29T12:02:48.180Z,1.17
2023-04-29T12:05:17.818Z,1.42
2023-04-29T12:07:46.538Z,1.40
2023-04-29T12:10:14.955Z,1.52
2023-04-29T12:12:44.767Z,2.40
2023-04-29T12:15:14.019Z,2.20
2023-04-29T12:17:43.792Z,2.28
2023-04-29T12:20:13.277Z,2.28
2023-04-29T12:22:44.840Z,2.65
2023-04-29T12:25:13.454Z,3.08
2023-04-29T12:27:45.287Z,3.00
2023-04-29T12:30:13.713Z,2.25
2023-04-29T12:32:42.611Z,2.03
2023-04-29T12:35:19.932Z,2.08
2023-04-29T12:37:51.963Z,2.47
2023-04-29T12:40:21.284Z,1.45
2023-04-29T12:42:49.640Z,1.60
2023-04-29T12:45:35.640Z,1.85
2023-04-29T12:48:09.111Z,1.65
2023-04-29T12:50:41.782Z,1.83
2023-04-29T12:53:10.793Z,1.90
2023-04-29T12:55:40.116Z,1.80
2023-04-29T12:58:10.131Z,1.48
2023-04-29T13:00:38.935Z,1.98
2023-04-29T13:06:23.603Z,2.03
2023-04-29T13:09:05.863Z,1.80
2023-04-29T13:11:35.021Z,1.65
2023-04-29T13:14:03.997Z,1.17
2023-04-29T13:16:40.896Z,1.42
2023-04-29T13:27:06.903Z,1.00
2023-04-29T13:29:38.137Z,0.80
2023-04-29T13:32:06.907Z,0.68
2023-04-29T13:44:14.065Z,1.13
2023-04-29T13:47:12.347Z,1.23
2023-04-29T14:07:04.033Z,1.00
2023-04-29T14:42:19.870Z,2.08
2023-04-29T14:48:08.198Z,2.13
2023-04-29T14:50:37.843Z,2.20
2023-04-29T15:01:37.739Z,2.03
2023-04-29T15:08:39.327Z,1.55
2023-04-29T15:12:11.231Z,1.90
2023-04-29T15:35:13.624Z,2.30
2023-04-29T15:38:19.809Z,2.13
2023-04-29T15:41:13.748Z,2.38
2023-04-29T15:44:19.646Z,2.00
2023-04-29T15:54:17.245Z,2.20
2023-04-29T16:04:13.918Z,2.42
2023-04-29T16:06:51.736Z,2.17
2023-04-29T16:37:22.709Z,1.83
2023-04-29T16:40:05.523Z,1.90
2023-04-29T16:42:40.383Z,1.60
2023-04-29T16:45:09.599Z,1.95
2023-04-29T16:50:31.860Z,1.60
2023-04-29T16:53:08.927Z,1.73
2023-04-29T16:55:40.095Z,1.42
2023-04-29T16:58:11.904Z,0.80
2023-04-29T17:00:51.669Z,0.90
2023-04-29T17:03:24.864Z,1.00
2023-04-29T17:06:07.042Z,0.70
2023-04-29T17:08:42.003Z,0.65
2023-04-29T17:11:11.241Z,0.80
2023-04-29T17:17:09.358Z,0.73
2023-04-29T17:20:08.158Z,0.60
2023-04-29T17:23:10.014Z,0.70
2023-04-29T17:26:15.247Z,0.90
2023-04-29T17:28:43.774Z,0.80
2023-04-29T17:37:36.436Z,0.40
2023-04-29T17:40:13.798Z,0.70
2023-04-29T17:43:14.635Z,0.55
2023-04-29T17:46:12.406Z,0.50
2023-04-29T17:49:17.092Z,0.50
2023-04-29T17:54:25.705Z,0.40
2023-04-29T18:01:43.513Z,0.40
2023-04-29T18:04:19.158Z,0.45
2023-04-29T18:07:19.930Z,0.50
2023-04-29T18:10:06.866Z,0.40
2023-04-29T18:13:24.086Z,0.50
2023-04-29T18:15:44.709Z,0.47
2023-04-29T18:18:24.508Z,0.60
2023-04-29T18:23:52.235Z,0.63
2023-04-29T18:26:21.696Z,0.35
2023-04-29T18:29:21.953Z,0.30
2023-04-29T18:35:20.826Z,0.40
2023-04-29T18:42:13.722Z,0.50
2023-04-29T18:47:44.540Z,0.60
2023-04-29T18:50:18.799Z,0.50
2023-04-29T18:52:47.277Z,0.60
2023-04-29T18:55:20.072Z,0.60
2023-04-29T19:30:05.293Z,0.73
2023-04-29T20:32:32.197Z,0.80
2023-04-29T20:38:51.413Z,0.80
2023-04-29T20:48:50.622Z,0.70
2023-04-29T20:51:50.275Z,0.57
2023-04-29T20:54:24.098Z,0.82
2023-04-29T20:56:55.823Z,0.70
2023-04-29T20:59:55.123Z,0.68
2023-04-29T21:03:56.015Z,0.60
2023-04-29T21:09:58.515Z,0.57
2023-04-29T21:16:52.542Z,0.85
2023-04-29T21:27:20.932Z,0.75
2023-04-29T21:33:55.379Z,0.63
2023-04-29T21:39:30.595Z,0.70
2023-04-29T21:42:03.492Z,0.80
2023-04-29T21:44:34.822Z,0.60
2023-04-29T21:47:36.278Z,0.60
2023-04-29T21:50:59.522Z,0.60
2023-04-29T21:53:52.638Z,0.70
2023-04-29T21:56:58.754Z,0.60
